Matewan, West Virginia
Current Conditions -  °F | °C
As of 4:35 AM on Saturday 25 Oct 2014 (Local Time) from KPBX Reporting Station
Clear Clear  
Wind Chill: 40°   Ceiling: Unl
Heat Index: 43°   Visibility: 10mi
Dew Point: 41°   Wind: 5mph
Humidity: 93%   Direction: 160°SSE
Pressure: 30.06"   Gusts: NA
Location:  37.62°N, 82.16°W
Report Text: KPBX 250835Z AUTO 16004KT 10SM CLR 06/05 A3006 RMK AO2 T00610050
Loading
Personal Weather Stations






























Interactive Weather Map
Tropical Storm Tracking
New forecast layout! Learn more

10-Day Weather Forecast

Advertisements
Track Severe Weather on mobile